createdAt,value
2018-07-28T00:00:23.522Z,97477.06
2018-07-28T00:02:53.177Z,97472.52
2018-07-28T00:05:22.479Z,97467.95
2018-07-28T00:07:51.686Z,97468.30
2018-07-28T00:10:21.656Z,97468.45
2018-07-28T00:12:51.474Z,97465.14
2018-07-28T00:15:20.600Z,97465.41
2018-07-28T00:17:49.698Z,97462.52
2018-07-28T00:20:18.879Z,97465.16
2018-07-28T00:22:48.058Z,97464.96
2018-07-28T00:25:17.206Z,97466.03
2018-07-28T00:27:46.326Z,97468.67
2018-07-28T00:30:15.870Z,97473.08
2018-07-28T00:32:45.023Z,97472.56
2018-07-28T00:35:14.170Z,97468.91
2018-07-28T00:37:43.286Z,97463.73
2018-07-28T00:40:12.443Z,97464.79
2018-07-28T00:42:41.579Z,97465.41
2018-07-28T00:45:10.758Z,97464.48
2018-07-28T00:47:39.925Z,97463.55
2018-07-28T00:50:10.146Z,97458.69
2018-07-28T00:52:39.482Z,97463.36
2018-07-28T00:55:11.027Z,97457.33
2018-07-28T00:57:40.174Z,97460.23
2018-07-28T01:00:10.293Z,97457.97
2018-07-28T01:02:39.521Z,97461.42
2018-07-28T01:05:09.302Z,97464.49
2018-07-28T01:07:38.612Z,97463.17
2018-07-28T01:10:08.706Z,97460.13
2018-07-28T01:12:37.865Z,97457.33
2018-07-28T01:15:10.722Z,97455.04
2018-07-28T01:17:40.017Z,97449.88
2018-07-28T01:20:10.694Z,97454.78
2018-07-28T01:22:40.690Z,97448.30
2018-07-28T01:25:11.254Z,97450.13
2018-07-28T01:27:40.913Z,97448.32
2018-07-28T01:30:14.577Z,97443.45
2018-07-28T01:32:43.695Z,97452.75
2018-07-28T01:35:12.797Z,97442.94
2018-07-28T01:37:42.081Z,97442.95
2018-07-28T01:40:11.220Z,97436.49
2018-07-28T01:42:40.146Z,97432.90
2018-07-28T01:45:09.859Z,97425.41
2018-07-28T01:47:38.967Z,97423.59
2018-07-28T01:50:09.786Z,97428.05
2018-07-28T01:52:45.374Z,97417.95
2018-07-28T01:55:14.749Z,97421.83
2018-07-28T01:57:44.622Z,97417.42
2018-07-28T02:00:13.946Z,97420.55
2018-07-28T02:02:43.640Z,97425.77
2018-07-28T02:05:13.294Z,97420.38
2018-07-28T02:07:42.598Z,97412.11
2018-07-28T02:10:11.818Z,97408.75
2018-07-28T02:12:41.667Z,97405.87
2018-07-28T02:15:10.814Z,97403.56
2018-07-28T02:17:40.450Z,97406.69
2018-07-28T02:20:17.441Z,97405.16
2018-07-28T02:22:47.145Z,97406.70
2018-07-28T02:25:16.343Z,97400.00
2018-07-28T02:27:45.518Z,97397.14
2018-07-28T02:30:14.650Z,97397.13
2018-07-28T02:32:43.931Z,97398.17
2018-07-28T02:35:13.246Z,97400.23
2018-07-28T02:37:42.402Z,97396.61
2018-07-28T02:40:11.811Z,97399.23
2018-07-28T02:42:47.780Z,97398.71
2018-07-28T02:45:17.125Z,97394.59
2018-07-28T02:47:46.726Z,97390.99
2018-07-28T02:50:15.842Z,97390.43
2018-07-28T02:52:44.961Z,97388.89
2018-07-28T02:55:14.346Z,97388.88
2018-07-28T02:57:43.454Z,97385.02
2018-07-28T03:00:12.603Z,97387.33
2018-07-28T03:02:41.678Z,97396.37
2018-07-28T03:05:10.846Z,97394.58
2018-07-28T03:07:40.082Z,97402.33
2018-07-28T03:10:09.523Z,97393.53
2018-07-28T03:12:38.669Z,97401.79
2018-07-28T03:15:26.966Z,97400.75
2018-07-28T03:17:56.134Z,97404.36
2018-07-28T03:20:25.317Z,97409.79
2018-07-28T03:22:54.409Z,97406.20
2018-07-28T03:25:23.666Z,97401.03
2018-07-28T03:27:52.972Z,97397.93
2018-07-28T03:30:22.061Z,97397.91
2018-07-28T03:32:51.214Z,97394.30
2018-07-28T03:35:20.326Z,97391.70
2018-07-28T03:37:49.653Z,97391.16
2018-07-28T03:40:20.209Z,97402.45
2018-07-28T03:42:50.057Z,97400.88
2018-07-28T03:45:19.398Z,97397.51
2018-07-28T03:47:48.712Z,97400.30
2018-07-28T03:50:18.161Z,97399.83
2018-07-28T03:52:47.494Z,97401.36
2018-07-28T03:55:16.865Z,97401.66
2018-07-28T03:57:45.505Z,97409.14
2018-07-28T04:00:14.609Z,97401.14
2018-07-28T04:02:43.735Z,97407.09
2018-07-28T04:05:12.830Z,97416.08
2018-07-28T04:07:41.921Z,97416.37
2018-07-28T04:10:11.129Z,97416.92
2018-07-28T04:12:40.406Z,97420.80
2018-07-28T04:15:12.278Z,97429.34
2018-07-28T04:17:46.838Z,97424.44
2018-07-28T04:20:16.019Z,97422.36
2018-07-28T04:22:45.195Z,97421.34
2018-07-28T04:25:14.443Z,97420.85
2018-07-28T04:27:43.601Z,97418.80
2018-07-28T04:30:12.702Z,97417.26
2018-07-28T04:32:41.833Z,97408.20
2018-07-28T04:35:10.949Z,97402.28
2018-07-28T04:37:40.403Z,97407.97
2018-07-28T04:40:11.153Z,97404.64
2018-07-28T04:42:41.254Z,97406.98
2018-07-28T04:45:10.492Z,97411.67
2018-07-28T04:47:39.641Z,97408.95
2018-07-28T04:50:08.795Z,97413.73
2018-07-28T04:52:37.913Z,97405.05
2018-07-28T04:55:07.565Z,97403.35
2018-07-28T04:57:37.057Z,97404.94
2018-07-28T05:00:06.629Z,97410.53
2018-07-28T05:02:35.328Z,97407.59
2018-07-28T05:05:04.815Z,97413.63
2018-07-28T05:07:34.037Z,97409.16
2018-07-28T05:10:03.087Z,97409.13
2018-07-28T05:12:32.235Z,97407.34
2018-07-28T05:15:01.361Z,97412.14
2018-07-28T05:17:30.477Z,97407.41
2018-07-28T05:19:59.803Z,97408.55
2018-07-28T05:22:28.906Z,97395.61
2018-07-28T05:24:57.983Z,97392.28
2018-07-28T05:27:27.133Z,97391.36
2018-07-28T05:29:56.218Z,97390.91
2018-07-28T05:32:25.309Z,97383.85
2018-07-28T05:34:55.170Z,97380.04
2018-07-28T05:37:24.279Z,97379.77
2018-07-28T05:39:53.405Z,97379.33
2018-07-28T05:42:22.545Z,97377.50
2018-07-28T05:44:51.667Z,97386.63
2018-07-28T05:47:20.845Z,97385.02
2018-07-28T05:49:49.973Z,97389.14
2018-07-28T05:52:19.073Z,97398.04
2018-07-28T05:54:48.203Z,97386.63
2018-07-28T05:57:17.310Z,97392.88
2018-07-28T05:59:46.422Z,97383.64
2018-07-28T06:02:15.887Z,97388.15
2018-07-28T06:04:45.045Z,97389.34
2018-07-28T06:07:14.210Z,97383.16
2018-07-28T06:09:43.353Z,97379.92
2018-07-28T06:12:12.470Z,97373.41
2018-07-28T06:14:41.842Z,97371.07
2018-07-28T06:17:11.205Z,97383.42
2018-07-28T06:19:40.640Z,97380.28
2018-07-28T06:22:09.814Z,97371.31
2018-07-28T06:24:38.963Z,97379.22
2018-07-28T06:27:08.081Z,97379.33
2018-07-28T06:29:39.414Z,97364.77
2018-07-28T06:32:09.886Z,97374.66
2018-07-28T06:34:39.425Z,97381.14
2018-07-28T06:37:08.562Z,97380.23
2018-07-28T06:39:37.703Z,97383.39
2018-07-28T06:42:06.813Z,97378.16
2018-07-28T06:44:35.945Z,97374.27
2018-07-28T06:47:05.205Z,97371.19
2018-07-28T06:49:34.685Z,97363.66
2018-07-28T06:52:03.702Z,97372.56
2018-07-28T06:54:32.813Z,97377.23
2018-07-28T06:57:01.941Z,97384.34
2018-07-28T06:59:31.562Z,97389.63
2018-07-28T07:02:00.646Z,97399.46
2018-07-28T07:04:29.414Z,97399.00
2018-07-28T07:06:58.529Z,97412.00
2018-07-28T07:09:27.615Z,97409.84
2018-07-28T07:11:56.725Z,97421.58
2018-07-28T07:14:25.817Z,97424.44
2018-07-28T07:16:54.913Z,97432.46
2018-07-28T07:19:24.065Z,97439.12
2018-07-28T07:21:53.169Z,97470.37
2018-07-28T07:24:22.309Z,97477.00
2018-07-28T07:26:52.130Z,97466.29
2018-07-28T07:29:21.293Z,97474.05
2018-07-28T07:31:50.426Z,97480.78
2018-07-28T07:34:19.525Z,97485.52
2018-07-28T07:36:48.641Z,97494.10
2018-07-28T07:39:17.868Z,97499.95
2018-07-28T07:41:47.039Z,97503.97
2018-07-28T07:44:16.105Z,97505.68
2018-07-28T07:46:45.523Z,97503.63
2018-07-28T07:49:15.023Z,97506.16
2018-07-28T07:51:45.033Z,97520.20
2018-07-28T07:54:14.304Z,97512.93
2018-07-28T07:56:43.422Z,97513.77
2018-07-28T07:59:12.533Z,97525.61
2018-07-28T08:01:41.672Z,97524.84
2018-07-28T08:04:10.785Z,97515.13
2018-07-28T08:06:40.012Z,97515.16
2018-07-28T08:09:09.655Z,97513.48
2018-07-28T08:11:38.842Z,97532.62
2018-07-28T08:14:07.961Z,97548.24
2018-07-28T08:16:37.077Z,97549.27
2018-07-28T08:19:06.942Z,97554.59
2018-07-28T08:21:37.706Z,97555.28
2018-07-28T08:24:09.353Z,97567.45
2018-07-28T08:26:40.704Z,97577.59
2018-07-28T08:29:09.841Z,97568.92
2018-07-28T08:31:38.982Z,97550.92
2018-07-28T08:34:10.570Z,97537.94
2018-07-28T08:36:39.681Z,97539.64
2018-07-28T08:39:13.282Z,97539.70
2018-07-28T08:41:43.577Z,97536.98
2018-07-28T08:44:14.186Z,97521.48
2018-07-28T08:46:43.530Z,97518.72
2018-07-28T08:49:12.758Z,97516.96
2018-07-28T08:51:42.601Z,97518.62
2018-07-28T08:54:11.838Z,97520.89
2018-07-28T08:56:40.986Z,97525.66
2018-07-28T08:59:10.135Z,97532.34
2018-07-28T09:01:39.282Z,97537.58
2018-07-28T09:04:08.389Z,97540.45
2018-07-28T09:06:37.547Z,97542.33
2018-07-28T09:09:08.307Z,97534.50
2018-07-28T09:11:37.444Z,97532.56
2018-07-28T09:14:07.126Z,97529.56
2018-07-28T09:16:36.313Z,97545.44
2018-07-28T09:19:05.472Z,97547.88
2018-07-28T09:21:34.817Z,97546.41
2018-07-28T09:24:03.898Z,97555.27
2018-07-28T09:26:33.013Z,97561.84
2018-07-28T09:29:01.111Z,97572.62
2018-07-28T09:31:29.858Z,97568.64
2018-07-28T09:33:59.002Z,97571.70
2018-07-28T09:36:28.130Z,97577.36
2018-07-28T09:38:58.829Z,97579.25
2018-07-28T09:41:28.689Z,97577.29
2018-07-28T09:43:57.018Z,97571.45
2018-07-28T09:46:26.174Z,97570.12
2018-07-28T09:48:55.874Z,97560.98
2018-07-28T09:51:25.937Z,97557.33
2018-07-28T09:53:55.710Z,97551.17
2018-07-28T09:56:26.545Z,97550.91
2018-07-28T09:58:55.953Z,97542.53
2018-07-28T10:01:25.593Z,97540.53
2018-07-28T10:03:55.988Z,97544.72
2018-07-28T10:06:25.290Z,97543.73
2018-07-28T10:08:56.131Z,97543.53
2018-07-28T10:11:25.436Z,97538.38
2018-07-28T10:13:55.125Z,97541.90
2018-07-28T10:16:24.977Z,97544.20
2018-07-28T10:18:56.639Z,97547.73
2018-07-28T10:21:27.759Z,97551.31
2018-07-28T10:23:57.102Z,97553.67
2018-07-28T10:26:26.846Z,97554.67
2018-07-28T10:28:56.861Z,97546.26
2018-07-28T10:31:25.969Z,97539.63
2018-07-28T10:33:55.957Z,97535.83
2018-07-28T10:36:25.239Z,97535.08
2018-07-28T10:38:54.217Z,97537.67
2018-07-28T10:41:23.834Z,97541.37
2018-07-28T10:43:52.933Z,97543.77
2018-07-28T10:46:22.282Z,97538.67
2018-07-28T10:48:52.110Z,97543.40
2018-07-28T10:51:21.316Z,97536.47
2018-07-28T10:53:50.409Z,97538.76
2018-07-28T10:56:19.549Z,97539.64
2018-07-28T10:58:49.286Z,97531.39
2018-07-28T11:01:18.390Z,97531.37
2018-07-28T11:03:47.575Z,97521.94
2018-07-28T11:06:16.856Z,97514.09
2018-07-28T11:08:46.045Z,97509.06
2018-07-28T11:11:15.214Z,97522.05
2018-07-28T11:13:44.317Z,97532.14
2018-07-28T11:16:13.449Z,97530.52
2018-07-28T11:18:42.614Z,97526.64
2018-07-28T11:21:11.714Z,97522.53
2018-07-28T11:23:59.845Z,97522.45
2018-07-28T11:26:29.737Z,97530.28
2018-07-28T11:28:57.798Z,97526.44
2018-07-28T11:31:37.656Z,97516.45
2018-07-28T11:34:23.682Z,97524.23
2018-07-28T11:37:09.665Z,97520.75
2018-07-28T11:39:55.818Z,97514.61
2018-07-28T11:42:36.183Z,97513.64
2018-07-28T11:45:12.028Z,97517.61
2018-07-28T11:47:41.414Z,97514.34
2018-07-28T11:50:10.774Z,97512.19
2018-07-28T11:52:39.608Z,97512.41
2018-07-28T11:55:08.723Z,97504.87
2018-07-28T11:57:37.845Z,97509.02
2018-07-28T12:00:09.014Z,97508.39
2018-07-28T12:02:38.369Z,97513.83
2018-07-28T12:05:07.987Z,97503.08
2018-07-28T12:07:37.122Z,97505.44
2018-07-28T12:10:07.472Z,97498.63
2018-07-28T12:12:36.145Z,97502.55
2018-07-28T12:15:07.698Z,97502.09
2018-07-28T12:17:36.786Z,97504.86
2018-07-28T12:20:06.037Z,97504.20
2018-07-28T12:22:35.183Z,97501.69
2018-07-28T12:25:04.324Z,97506.77
2018-07-28T12:27:33.419Z,97492.87
2018-07-28T12:30:02.244Z,97497.11
2018-07-28T12:32:31.518Z,97489.81
2018-07-28T12:35:00.788Z,97488.98
2018-07-28T12:37:29.814Z,97485.09
2018-07-28T12:39:59.212Z,97485.86
2018-07-28T12:42:27.933Z,97477.96
2018-07-28T12:44:57.223Z,97488.41
2018-07-28T12:47:26.649Z,97480.34
2018-07-28T12:49:56.299Z,97476.66
2018-07-28T12:52:25.417Z,97477.73
2018-07-28T12:54:58.877Z,97495.37
2018-07-28T12:57:27.857Z,97489.75
2018-07-28T12:59:56.965Z,97486.63
2018-07-28T13:02:26.098Z,97495.17
2018-07-28T13:04:55.247Z,97498.24
2018-07-28T13:07:24.407Z,97500.76
2018-07-28T13:09:53.590Z,97494.93
2018-07-28T13:12:22.788Z,97489.53
2018-07-28T13:14:51.878Z,97494.48
2018-07-28T13:17:21.033Z,97504.97
2018-07-28T13:19:50.134Z,97512.05
2018-07-28T13:22:19.396Z,97523.87
2018-07-28T13:24:48.668Z,97533.61
2018-07-28T13:27:18.359Z,97542.27
2018-07-28T13:29:47.508Z,97537.17
2018-07-28T13:32:17.881Z,97525.69
2018-07-28T13:34:46.983Z,97536.56
2018-07-28T13:37:16.136Z,97544.08
2018-07-28T13:39:45.241Z,97558.39
2018-07-28T13:42:14.718Z,97553.86
2018-07-28T13:44:44.921Z,97550.92
2018-07-28T13:47:14.229Z,97552.70
2018-07-28T13:49:43.545Z,97553.62
2018-07-28T13:52:13.309Z,97543.36
2018-07-28T13:54:44.473Z,97538.16
2018-07-28T13:57:14.078Z,97540.39
2018-07-28T13:59:42.793Z,97557.64
2018-07-28T14:02:12.321Z,97554.95
2018-07-28T14:04:42.108Z,97556.38
2018-07-28T14:07:10.765Z,97545.08
2018-07-28T14:09:39.938Z,97544.30
2018-07-28T14:12:09.081Z,97538.23
2018-07-28T14:14:37.806Z,97551.91
2018-07-28T14:17:06.985Z,97561.36
2018-07-28T14:19:36.086Z,97556.31
2018-07-28T14:22:05.297Z,97552.22
2018-07-28T14:24:34.757Z,97565.42
2018-07-28T14:27:03.857Z,97569.09
2018-07-28T14:29:33.365Z,97581.00
2018-07-28T14:32:03.086Z,97587.67
2018-07-28T14:34:32.251Z,97592.68
2018-07-28T14:37:02.379Z,97593.59
2018-07-28T14:39:31.485Z,97585.48
2018-07-28T14:42:00.602Z,97595.58
2018-07-28T14:44:30.174Z,97594.09
2018-07-28T14:46:59.379Z,97593.56
2018-07-28T14:49:28.422Z,97600.14
2018-07-28T14:52:01.623Z,97599.84
2018-07-28T14:54:31.338Z,97596.58
2018-07-28T14:57:00.686Z,97603.66
2018-07-28T14:59:30.494Z,97609.25
2018-07-28T15:02:00.067Z,97608.98
2018-07-28T15:04:29.579Z,97606.22
2018-07-28T15:06:59.401Z,97610.81
2018-07-28T15:09:28.132Z,97617.17
2018-07-28T15:11:57.273Z,97613.81
2018-07-28T15:14:28.281Z,97616.89
2018-07-28T15:16:58.312Z,97613.38
2018-07-28T15:19:27.697Z,97621.36
2018-07-28T15:21:56.921Z,97617.58
2018-07-28T15:24:27.579Z,97627.48
2018-07-28T15:26:56.714Z,97627.69
2018-07-28T15:29:26.070Z,97638.61
2018-07-28T15:31:55.579Z,97641.58
2018-07-28T15:34:24.679Z,97649.48
2018-07-28T15:36:54.149Z,97646.82
2018-07-28T15:39:22.097Z,97651.08
2018-07-28T15:41:51.321Z,97649.17
2018-07-28T15:44:20.542Z,97655.90
2018-07-28T15:46:49.318Z,97645.00
2018-07-28T15:49:18.424Z,97651.81
2018-07-28T15:51:47.566Z,97641.23
2018-07-28T15:54:16.685Z,97648.03
2018-07-28T15:56:45.795Z,97649.77
2018-07-28T15:59:14.920Z,97649.55
2018-07-28T16:01:44.094Z,97646.47
2018-07-28T16:04:13.169Z,97657.62
2018-07-28T16:06:42.321Z,97651.77
2018-07-28T16:09:11.722Z,97652.67
2018-07-28T16:11:40.870Z,97667.61
2018-07-28T16:14:09.881Z,97662.03
2018-07-28T16:16:39.009Z,97676.75
2018-07-28T16:19:08.338Z,97688.59
2018-07-28T16:21:38.011Z,97683.93
2018-07-28T16:24:07.769Z,97683.50
2018-07-28T16:26:36.928Z,97688.02
2018-07-28T16:29:06.103Z,97694.81
2018-07-28T16:31:35.222Z,97692.19
2018-07-28T16:34:04.494Z,97689.42
2018-07-28T16:36:33.598Z,97698.41
2018-07-28T16:39:02.770Z,97706.04
2018-07-28T16:41:31.850Z,97701.27
2018-07-28T16:44:00.944Z,97707.98
2018-07-28T16:46:30.286Z,97709.05
2018-07-28T16:48:59.474Z,97709.20
2018-07-28T16:51:28.849Z,97709.09
2018-07-28T16:53:59.041Z,97713.10
2018-07-28T16:56:27.866Z,97718.94
2018-07-28T16:58:57.037Z,97722.97
2018-07-28T17:01:26.086Z,97723.54
2018-07-28T17:03:55.202Z,97730.30
2018-07-28T17:06:24.304Z,97731.41
2018-07-28T17:08:53.419Z,97738.13
2018-07-28T17:11:22.538Z,97741.42
2018-07-28T17:13:51.733Z,97748.31
2018-07-28T17:16:20.846Z,97747.41
2018-07-28T17:18:49.961Z,97756.06
2018-07-28T17:21:19.061Z,97751.61
2018-07-28T17:23:48.205Z,97758.23
2018-07-28T17:26:17.521Z,97755.58
2018-07-28T17:28:46.518Z,97757.56
2018-07-28T17:31:15.861Z,97754.34
2018-07-28T17:33:45.097Z,97756.03
2018-07-28T17:36:14.326Z,97754.22
2018-07-28T17:38:43.444Z,97750.27
2018-07-28T17:41:12.620Z,97750.92
2018-07-28T17:43:41.693Z,97762.45
2018-07-28T17:46:10.827Z,97761.26
2018-07-28T17:48:40.605Z,97766.18
2018-07-28T17:51:09.762Z,97769.67
2018-07-28T17:53:38.866Z,97771.98
2018-07-28T17:56:08.608Z,97775.36
2018-07-28T17:58:38.253Z,97776.31
2018-07-28T18:01:07.909Z,97774.95
2018-07-28T18:03:37.042Z,97775.19
2018-07-28T18:06:07.777Z,97778.23
2018-07-28T18:08:36.922Z,97779.04
2018-07-28T18:11:06.465Z,97791.69
2018-07-28T18:13:35.702Z,97800.81
2018-07-28T18:16:04.814Z,97804.38
2018-07-28T18:18:33.921Z,97806.10
2018-07-28T18:21:03.463Z,97801.31
2018-07-28T18:23:32.679Z,97803.48
2018-07-28T18:26:01.785Z,97805.59
2018-07-28T18:28:30.955Z,97816.42
2018-07-28T18:31:00.106Z,97819.68
2018-07-28T18:33:30.199Z,97816.58
2018-07-28T18:35:59.330Z,97816.95
2018-07-28T18:38:28.450Z,97829.94
2018-07-28T18:40:57.577Z,97832.74
2018-07-28T18:43:26.710Z,97830.16
2018-07-28T18:45:56.629Z,97833.59
2018-07-28T18:48:25.497Z,97845.22
2018-07-28T18:50:55.361Z,97836.41
2018-07-28T18:53:24.449Z,97836.01
2018-07-28T18:55:53.592Z,97833.41
2018-07-28T18:58:23.033Z,97837.33
2018-07-28T19:00:52.222Z,97843.02
2018-07-28T19:03:21.336Z,97844.81
2018-07-28T19:05:51.349Z,97846.95
2018-07-28T19:08:20.921Z,97842.09
2018-07-28T19:10:50.778Z,97842.72
2018-07-28T19:13:25.530Z,97849.42
2018-07-28T19:15:54.852Z,97859.00
2018-07-28T19:18:29.319Z,97864.86
2018-07-28T19:20:58.421Z,97862.73
2018-07-28T19:23:33.421Z,97865.13
2018-07-28T19:26:02.217Z,97864.80
2018-07-28T19:28:37.317Z,97870.33
2018-07-28T19:31:07.438Z,97876.21
2018-07-28T19:33:36.541Z,97870.53
2018-07-28T19:36:10.993Z,97870.12
2018-07-28T19:38:40.146Z,97876.30
2018-07-28T19:41:09.394Z,97884.11
2018-07-28T19:43:38.565Z,97878.38
2018-07-28T19:46:07.801Z,97878.02
2018-07-28T19:48:36.923Z,97881.42
2018-07-28T19:51:06.810Z,97881.56
2018-07-28T19:53:36.778Z,97883.75
2018-07-28T19:56:07.025Z,97892.32
2018-07-28T19:58:36.150Z,97890.86
2018-07-28T20:01:05.529Z,97894.00
2018-07-28T20:03:35.049Z,97895.08
2018-07-28T20:06:04.175Z,97894.98
2018-07-28T20:08:33.315Z,97901.53
2018-07-28T20:11:02.450Z,97898.98
2018-07-28T20:13:31.669Z,97898.58
2018-07-28T20:16:00.799Z,97902.77
2018-07-28T20:18:29.949Z,97907.83
2018-07-28T20:20:59.165Z,97917.56
2018-07-28T20:23:28.394Z,97920.17
2018-07-28T20:25:57.765Z,97914.78
2018-07-28T20:28:26.561Z,97924.00
2018-07-28T20:30:55.665Z,97926.17
2018-07-28T20:33:24.802Z,97930.94
2018-07-28T20:35:53.926Z,97925.20
2018-07-28T20:38:23.690Z,97926.30
2018-07-28T20:40:53.284Z,97928.97
2018-07-28T20:43:22.909Z,97927.40
2018-07-28T20:45:52.525Z,97922.78
2018-07-28T20:48:22.406Z,97926.70
2018-07-28T20:50:51.731Z,97936.56
2018-07-28T20:53:21.329Z,97936.11
2018-07-28T20:55:50.641Z,97941.44
2018-07-28T20:58:19.758Z,97943.95
2018-07-28T21:00:49.041Z,97939.27
2018-07-28T21:03:18.232Z,97938.71
2018-07-28T21:05:47.555Z,97937.48
2018-07-28T21:08:17.102Z,97935.56
2018-07-28T21:10:46.953Z,97936.13
2018-07-28T21:13:16.921Z,97935.63
2018-07-28T21:15:46.286Z,97934.39
2018-07-28T21:18:16.100Z,97937.52
2018-07-28T21:20:45.913Z,97940.38
2018-07-28T21:23:15.358Z,97942.97
2018-07-28T21:25:44.205Z,97940.14
2018-07-28T21:28:13.518Z,97938.34
2018-07-28T21:30:43.007Z,97941.23
2018-07-28T21:33:12.965Z,97948.80
2018-07-28T21:35:42.365Z,97949.84
2018-07-28T21:38:11.914Z,97948.77
2018-07-28T21:40:41.077Z,97957.60
2018-07-28T21:43:10.378Z,97956.33
2018-07-28T21:45:39.477Z,97950.63
2018-07-28T21:48:09.216Z,97956.83
2018-07-28T21:50:38.543Z,97958.41
2018-07-28T21:53:07.973Z,97960.47
2018-07-28T21:55:37.554Z,97964.89
2018-07-28T21:58:07.105Z,97964.38
2018-07-28T22:00:42.272Z,97955.03
2018-07-28T22:03:11.991Z,97969.80
2018-07-28T22:05:41.885Z,97970.58
2018-07-28T22:08:11.693Z,97974.73
2018-07-28T22:10:40.814Z,97981.98
2018-07-28T22:13:09.949Z,97984.56
2018-07-28T22:15:39.106Z,97976.79
2018-07-28T22:18:08.269Z,97980.95
2018-07-28T22:20:37.354Z,97984.33
2018-07-28T22:23:07.217Z,97979.93
2018-07-28T22:25:37.313Z,97978.09
2018-07-28T22:28:06.237Z,97993.14
2018-07-28T22:30:35.370Z,97994.68
2018-07-28T22:33:04.548Z,97990.01
2018-07-28T22:35:33.667Z,97989.25
2018-07-28T22:38:02.849Z,97995.45
2018-07-28T22:40:31.986Z,97990.03
2018-07-28T22:43:01.086Z,97999.88
2018-07-28T22:45:30.839Z,97990.53
2018-07-28T22:48:00.118Z,97990.28
2018-07-28T22:50:29.217Z,97995.70
2018-07-28T22:52:58.809Z,98000.64
2018-07-28T22:55:27.969Z,98000.87
2018-07-28T22:57:57.235Z,97998.75
2018-07-28T23:00:26.417Z,97998.52
2018-07-28T23:02:55.589Z,97996.44
2018-07-28T23:05:25.318Z,98000.05
2018-07-28T23:07:54.422Z,97998.77
2018-07-28T23:10:23.586Z,98002.94
2018-07-28T23:12:52.669Z,98001.41
2018-07-28T23:15:21.804Z,97997.47
2018-07-28T23:17:50.945Z,98005.02
2018-07-28T23:20:20.051Z,98000.64
2018-07-28T23:22:49.153Z,97998.53
2018-07-28T23:25:18.293Z,98002.71
2018-07-28T23:27:47.402Z,98001.95
2018-07-28T23:30:16.341Z,98007.13
2018-07-28T23:32:45.613Z,98006.36
2018-07-28T23:35:14.869Z,98001.42
2018-07-28T23:37:43.958Z,97998.30
2018-07-28T23:40:13.081Z,98009.23
2018-07-28T23:42:42.218Z,98000.38
2018-07-28T23:45:11.381Z,98008.17
2018-07-28T23:47:40.534Z,98010.22
2018-07-28T23:50:09.638Z,98013.32
2018-07-28T23:52:38.913Z,98011.25
2018-07-28T23:55:08.577Z,98006.83
2018-07-28T23:57:37.666Z,98015.38
